createdAt,value
2022-09-18T00:01:45.229Z,62.35
2022-09-18T00:04:15.132Z,62.15
2022-09-18T00:06:45.777Z,61.97
2022-09-18T00:09:16.077Z,62.00
2022-09-18T00:11:48.073Z,62.09
2022-09-18T00:14:21.551Z,61.98
2022-09-18T00:16:50.922Z,61.66
2022-09-18T00:19:19.837Z,61.63
2022-09-18T00:21:50.887Z,61.62
2022-09-18T00:24:19.661Z,61.33
2022-09-18T00:26:48.174Z,61.09
2022-09-18T00:29:18.181Z,60.85
2022-09-18T00:31:46.346Z,61.19
2022-09-18T00:34:16.389Z,61.18
2022-09-18T00:36:44.924Z,60.97
2022-09-18T00:39:13.137Z,60.33
2022-09-18T00:41:43.162Z,60.09
2022-09-18T00:44:42.084Z,60.03
2022-09-18T00:47:09.750Z,57.17
2022-09-18T00:49:45.332Z,57.74
2022-09-18T00:52:15.759Z,63.05
2022-09-18T00:54:49.948Z,63.90
2022-09-18T00:57:25.425Z,59.99
2022-09-18T00:59:54.859Z,56.36
2022-09-18T01:02:22.866Z,56.14
2022-09-18T01:04:51.571Z,59.78
2022-09-18T01:07:50.259Z,63.72
2022-09-18T01:10:55.303Z,65.72
2022-09-18T01:13:37.652Z,64.38
2022-09-18T01:16:40.956Z,62.57
2022-09-18T01:20:06.754Z,61.62
2022-09-18T01:22:54.406Z,60.84
2022-09-18T01:25:56.305Z,60.74
2022-09-18T01:28:39.778Z,59.89
2022-09-18T01:31:17.756Z,58.45
2022-09-18T01:34:12.771Z,57.10
2022-09-18T01:36:49.094Z,60.09
2022-09-18T01:39:35.562Z,66.19
2022-09-18T01:42:08.507Z,66.14
2022-09-18T01:44:41.229Z,64.32
2022-09-18T01:47:14.707Z,62.59
2022-09-18T01:49:48.461Z,62.21
2022-09-18T01:52:31.631Z,61.79
2022-09-18T01:55:03.571Z,62.10
2022-09-18T01:58:03.615Z,62.24
2022-09-18T02:00:32.672Z,61.82
2022-09-18T02:03:11.738Z,61.75
2022-09-18T02:06:11.455Z,61.43
2022-09-18T02:08:53.432Z,61.82
2022-09-18T02:11:22.988Z,62.30
2022-09-18T02:14:07.373Z,62.58
2022-09-18T02:16:50.865Z,62.49
2022-09-18T02:19:41.267Z,62.46
2022-09-18T02:22:17.806Z,62.64
2022-09-18T02:24:50.657Z,62.70
2022-09-18T02:27:21.847Z,62.63
2022-09-18T02:29:49.835Z,62.79
2022-09-18T02:32:17.857Z,62.73
2022-09-18T02:34:45.957Z,62.80
2022-09-18T02:37:41.754Z,62.58
2022-09-18T02:40:35.772Z,62.86
2022-09-18T02:43:54.673Z,62.96
2022-09-18T02:46:47.135Z,62.99
2022-09-18T02:49:30.518Z,62.86
2022-09-18T02:52:29.914Z,62.87
2022-09-18T02:55:07.889Z,62.64
2022-09-18T02:57:47.254Z,62.40
2022-09-18T03:00:18.853Z,63.23
2022-09-18T03:02:47.850Z,62.49
2022-09-18T03:05:15.616Z,62.14
2022-09-18T03:07:43.629Z,61.58
2022-09-18T03:10:11.940Z,61.53
2022-09-18T03:12:39.693Z,61.43
2022-09-18T03:15:08.574Z,61.30
2022-09-18T03:17:36.665Z,61.27
2022-09-18T03:20:07.503Z,60.95
2022-09-18T03:22:35.503Z,60.82
2022-09-18T03:25:03.706Z,60.82
2022-09-18T03:27:31.445Z,60.82
2022-09-18T03:29:59.348Z,60.82
2022-09-18T03:32:27.131Z,60.73
2022-09-18T03:34:56.015Z,60.34
2022-09-18T03:37:24.405Z,60.07
2022-09-18T03:39:52.169Z,59.83
2022-09-18T03:42:19.894Z,59.74
2022-09-18T03:44:47.835Z,60.24
2022-09-18T03:47:15.910Z,60.42
2022-09-18T03:49:43.658Z,60.94
2022-09-18T03:52:11.404Z,61.88
2022-09-18T03:54:39.509Z,62.34
2022-09-18T03:57:07.427Z,62.81
2022-09-18T03:59:35.171Z,62.94
2022-09-18T04:02:03.114Z,63.06
2022-09-18T04:04:31.489Z,63.12
2022-09-18T04:06:59.298Z,63.84
2022-09-18T04:09:27.110Z,63.84
2022-09-18T04:11:54.873Z,63.53
2022-09-18T04:14:25.631Z,63.33
2022-09-18T04:16:57.238Z,63.01
2022-09-18T04:19:25.130Z,62.93
2022-09-18T04:21:52.914Z,63.02
2022-09-18T04:24:20.680Z,63.22
2022-09-18T04:26:49.448Z,63.36
2022-09-18T04:29:17.210Z,63.52
2022-09-18T04:31:45.284Z,63.68
2022-09-18T04:34:13.090Z,63.51
2022-09-18T04:36:40.868Z,63.25
2022-09-18T04:39:08.588Z,62.90
2022-09-18T04:41:37.061Z,62.57
2022-09-18T04:44:05.095Z,62.78
2022-09-18T04:46:33.667Z,62.94
2022-09-18T04:49:01.474Z,63.16
2022-09-18T04:51:29.239Z,63.45
2022-09-18T04:53:57.117Z,63.34
2022-09-18T04:56:24.889Z,63.00
2022-09-18T04:58:52.651Z,62.64
2022-09-18T05:01:20.473Z,62.65
2022-09-18T05:03:48.285Z,62.70
2022-09-18T05:06:16.121Z,62.68
2022-09-18T05:08:43.890Z,62.49
2022-09-18T05:11:11.672Z,62.03
2022-09-18T05:13:40.376Z,62.23
2022-09-18T05:16:08.161Z,62.40
2022-09-18T05:18:36.083Z,62.28
2022-09-18T05:21:05.895Z,61.99
2022-09-18T05:23:34.672Z,62.01
2022-09-18T05:26:03.055Z,62.12
2022-09-18T05:28:31.537Z,62.34
2022-09-18T05:31:00.847Z,62.24
2022-09-18T05:33:29.156Z,61.87
2022-09-18T05:35:58.767Z,62.03
2022-09-18T05:38:27.096Z,62.29
2022-09-18T05:40:54.855Z,62.03
2022-09-18T05:43:22.620Z,62.23
2022-09-18T05:45:50.404Z,62.40
2022-09-18T05:48:18.291Z,62.22
2022-09-18T05:50:46.240Z,62.00
2022-09-18T05:53:19.742Z,61.91
2022-09-18T05:55:48.353Z,61.57
2022-09-18T05:58:19.086Z,61.35
2022-09-18T06:00:48.768Z,61.72
2022-09-18T06:03:17.034Z,61.93
2022-09-18T06:05:53.245Z,61.89
2022-09-18T06:08:21.867Z,61.86
2022-09-18T06:10:49.894Z,61.80
2022-09-18T06:13:19.259Z,61.64
2022-09-18T06:15:52.472Z,61.72
2022-09-18T06:18:20.606Z,61.62
2022-09-18T06:20:55.233Z,61.30
2022-09-18T06:23:25.760Z,61.25
2022-09-18T06:26:03.059Z,61.00
2022-09-18T06:28:32.786Z,61.20
2022-09-18T06:31:04.403Z,61.00
2022-09-18T06:33:35.664Z,60.78
2022-09-18T06:36:08.456Z,60.32
2022-09-18T06:38:36.373Z,59.91
2022-09-18T06:41:04.115Z,59.68
2022-09-18T06:43:31.946Z,58.53
2022-09-18T06:45:59.708Z,58.72
2022-09-18T06:48:29.464Z,62.72
2022-09-18T06:50:59.757Z,66.48
2022-09-18T06:53:28.295Z,65.28
2022-09-18T06:56:00.216Z,63.72
2022-09-18T06:58:28.027Z,62.56
2022-09-18T07:01:01.088Z,62.16
2022-09-18T07:03:29.131Z,61.71
2022-09-18T07:05:56.956Z,61.47
2022-09-18T07:12:33.176Z,60.87
2022-09-18T07:15:09.781Z,60.34
2022-09-18T07:17:41.358Z,59.97
2022-09-18T07:20:15.282Z,58.63
2022-09-18T07:22:57.599Z,60.24
2022-09-18T07:25:38.465Z,63.60
2022-09-18T07:28:11.350Z,64.16
2022-09-18T07:30:40.358Z,62.50
2022-09-18T07:33:11.134Z,61.44
2022-09-18T07:35:49.390Z,61.02
2022-09-18T07:38:17.191Z,60.89
2022-09-18T07:40:54.081Z,60.85
2022-09-18T07:47:22.163Z,60.85
2022-09-18T07:52:35.713Z,60.57
2022-09-18T07:55:13.776Z,60.22
2022-09-18T07:57:41.581Z,60.06
2022-09-18T08:00:11.365Z,59.31
2022-09-18T08:02:39.275Z,59.85
2022-09-18T08:05:10.467Z,62.05
2022-09-18T08:07:47.609Z,65.18
2022-09-18T08:10:20.058Z,64.27
2022-09-18T08:12:56.707Z,61.85
2022-09-18T08:15:24.479Z,60.49
2022-09-18T08:17:58.879Z,59.00
2022-09-18T08:20:31.195Z,59.81
2022-09-18T08:23:12.884Z,62.28
2022-09-18T08:27:11.119Z,65.06
2022-09-18T08:29:40.089Z,62.02
2022-09-18T08:32:24.722Z,60.20
2022-09-18T08:34:54.048Z,58.14
2022-09-18T08:37:23.041Z,58.86
2022-09-18T08:39:55.665Z,59.50
2022-09-18T08:43:09.192Z,62.93
2022-09-18T08:46:01.602Z,62.89
2022-09-18T08:48:47.530Z,60.20
2022-09-18T08:52:00.846Z,57.91
2022-09-18T08:54:49.758Z,59.07
2022-09-18T08:57:43.293Z,61.54
2022-09-18T09:00:25.791Z,64.08
2022-09-18T09:03:10.600Z,63.20
2022-09-18T09:05:54.905Z,60.75
2022-09-18T09:13:15.057Z,58.75
2022-09-18T09:16:09.779Z,61.23
2022-09-18T09:19:01.963Z,63.03
2022-09-18T09:22:01.706Z,63.82
2022-09-18T09:25:03.439Z,60.80
2022-09-18T09:27:54.120Z,58.00
2022-09-18T09:30:23.653Z,58.83
2022-09-18T09:33:25.636Z,61.05
2022-09-18T09:42:14.283Z,58.53
2022-09-18T09:45:43.590Z,58.88
2022-09-18T09:48:46.974Z,61.08
2022-09-18T09:52:53.422Z,62.65
2022-09-18T09:55:37.972Z,62.89
2022-09-18T09:59:08.432Z,60.72
2022-09-18T10:02:04.070Z,57.64
2022-09-18T10:05:08.127Z,59.12
2022-09-18T10:07:54.278Z,61.14
2022-09-18T10:10:52.988Z,63.23
2022-09-18T10:14:22.310Z,61.45
2022-09-18T10:16:55.643Z,58.16
2022-09-18T10:19:40.538Z,58.80
2022-09-18T10:22:32.024Z,60.22
2022-09-18T10:25:47.245Z,60.96
2022-09-18T10:28:16.204Z,61.52
2022-09-18T10:31:13.116Z,61.16
2022-09-18T10:33:45.543Z,62.73
2022-09-18T10:36:49.305Z,62.09
2022-09-18T10:39:57.878Z,57.97
2022-09-18T10:42:58.018Z,57.11
2022-09-18T10:45:45.171Z,57.59
2022-09-18T10:48:29.535Z,57.78
2022-09-18T10:51:03.255Z,58.64
2022-09-18T10:53:39.090Z,58.60
2022-09-18T10:56:21.672Z,58.22
2022-09-18T10:58:52.506Z,58.48
2022-09-18T11:01:30.203Z,58.79
2022-09-18T11:04:06.915Z,58.67
2022-09-18T11:06:38.157Z,58.32
2022-09-18T11:09:19.518Z,58.26
2022-09-18T11:11:54.808Z,58.44
2022-09-18T11:14:28.060Z,57.52
2022-09-18T11:18:18.624Z,57.65
2022-09-18T11:20:48.011Z,57.91
2022-09-18T11:23:38.306Z,58.05
2022-09-18T11:26:37.154Z,58.13
2022-09-18T11:29:25.233Z,57.95
2022-09-18T11:32:27.785Z,57.49
2022-09-18T11:35:02.781Z,55.84
2022-09-18T11:37:49.075Z,56.08
2022-09-18T11:40:30.541Z,54.97
2022-09-18T11:43:03.358Z,56.06
2022-09-18T11:45:53.402Z,55.87
2022-09-18T11:48:32.790Z,55.82
2022-09-18T11:51:13.639Z,55.44
2022-09-18T11:54:15.912Z,55.40
2022-09-18T11:56:55.417Z,55.86
2022-09-18T11:59:34.399Z,55.75
2022-09-18T12:02:46.017Z,55.14
2022-09-18T12:05:27.160Z,54.83
2022-09-18T12:08:23.700Z,54.54
2022-09-18T12:11:27.480Z,54.48
2022-09-18T12:14:18.836Z,54.57
2022-09-18T12:17:04.429Z,53.65
2022-09-18T12:19:49.483Z,54.05
2022-09-18T12:22:30.453Z,53.51
2022-09-18T12:26:02.125Z,52.90
2022-09-18T12:29:32.404Z,52.98
2022-09-18T12:32:40.452Z,51.65
2022-09-18T12:36:03.213Z,51.54
2022-09-18T12:39:00.515Z,51.20
2022-09-18T12:42:17.539Z,49.89
2022-09-18T12:45:19.404Z,49.63
2022-09-18T12:48:28.195Z,49.44
2022-09-18T12:51:42.022Z,49.51
2022-09-18T12:54:52.591Z,49.95
2022-09-18T12:57:58.980Z,49.27
2022-09-18T13:00:30.756Z,48.94
2022-09-18T13:03:29.412Z,49.61
2022-09-18T13:10:42.025Z,52.23
2022-09-18T13:13:55.790Z,53.39
2022-09-18T13:16:51.738Z,54.04
2022-09-18T13:20:43.759Z,54.90
2022-09-18T13:23:46.335Z,56.65
2022-09-18T13:26:16.134Z,59.19
2022-09-18T13:28:51.954Z,61.72
2022-09-18T13:31:32.454Z,63.99
2022-09-18T13:34:16.578Z,63.90
2022-09-18T13:36:47.157Z,61.58
2022-09-18T13:39:55.336Z,57.29
2022-09-18T13:42:43.160Z,56.15
2022-09-18T13:45:20.430Z,58.64
2022-09-18T13:48:21.218Z,62.12
2022-09-18T13:51:00.547Z,62.71
2022-09-18T13:53:42.229Z,60.71
2022-09-18T13:56:20.114Z,58.91
2022-09-18T13:58:56.173Z,56.71
2022-09-18T14:01:43.398Z,58.54
2022-09-18T14:04:48.791Z,62.09
2022-09-18T14:07:16.464Z,62.53
2022-09-18T14:10:03.072Z,61.41
2022-09-18T14:12:36.270Z,60.06
2022-09-18T14:15:26.180Z,57.70
2022-09-18T14:18:14.647Z,57.79
2022-09-18T14:20:52.713Z,61.63
2022-09-18T14:23:35.868Z,63.08
2022-09-18T14:26:34.922Z,62.05
2022-09-18T14:29:12.284Z,60.91
2022-09-18T14:32:10.445Z,60.40
2022-09-18T14:34:40.629Z,59.62
2022-09-18T14:37:35.061Z,59.32
2022-09-18T14:40:31.367Z,57.90
2022-09-18T14:42:59.209Z,59.29
2022-09-18T14:45:31.050Z,63.66
2022-09-18T14:48:22.617Z,65.06
2022-09-18T14:52:03.616Z,63.67
2022-09-18T14:54:48.780Z,61.24
2022-09-18T14:57:25.710Z,61.59
2022-09-18T15:00:01.590Z,60.66
2022-09-18T15:02:37.422Z,58.41
2022-09-18T15:05:22.134Z,60.04
2022-09-18T15:08:01.156Z,63.43
2022-09-18T15:10:30.101Z,64.18
2022-09-18T15:12:59.841Z,63.07
2022-09-18T15:15:33.716Z,61.96
2022-09-18T15:18:05.883Z,60.69
2022-09-18T15:20:36.829Z,60.15
2022-09-18T15:23:33.104Z,58.88
2022-09-18T15:26:16.163Z,59.70
2022-09-18T15:31:44.723Z,64.32
2022-09-18T15:34:27.412Z,63.02
2022-09-18T15:37:37.798Z,61.69
2022-09-18T15:42:44.945Z,60.63
2022-09-18T15:48:53.345Z,58.01
2022-09-18T15:51:35.639Z,59.91
2022-09-18T15:54:12.967Z,63.60
2022-09-18T15:58:16.537Z,64.20
2022-09-18T16:13:52.373Z,62.36
2022-09-18T16:17:15.164Z,66.57
2022-09-18T17:20:00.892Z,60.34
2022-09-18T17:27:16.033Z,59.97
2022-09-18T17:30:31.989Z,59.82
2022-09-18T17:33:24.486Z,59.69
2022-09-18T17:36:48.649Z,59.70
2022-09-18T18:02:17.989Z,60.25
2022-09-18T18:09:14.159Z,60.52
2022-09-18T18:13:09.068Z,60.37
2022-09-18T18:20:59.822Z,60.79
2022-09-18T18:27:40.455Z,61.46
2022-09-18T18:31:36.485Z,61.56
2022-09-18T18:34:42.383Z,61.47
2022-09-18T18:37:57.502Z,61.25
2022-09-18T18:40:32.029Z,61.44
2022-09-18T18:43:14.084Z,62.40
2022-09-18T18:46:20.652Z,63.06
2022-09-18T18:49:04.498Z,62.55
2022-09-18T18:51:48.028Z,62.24
2022-09-18T18:54:30.563Z,62.28
2022-09-18T18:57:01.755Z,62.49
2022-09-18T18:59:32.466Z,62.66
2022-09-18T19:02:04.215Z,62.66
2022-09-18T19:04:40.584Z,62.88
2022-09-18T19:07:08.590Z,63.13
2022-09-18T19:09:39.848Z,63.29
2022-09-18T19:12:07.800Z,63.15
2022-09-18T19:14:38.272Z,63.12
2022-09-18T19:17:35.247Z,63.39
2022-09-18T19:20:26.506Z,63.52
2022-09-18T19:23:31.961Z,63.37
2022-09-18T19:26:10.218Z,63.32
2022-09-18T19:29:16.565Z,62.96
2022-09-18T19:32:01.618Z,62.95
2022-09-18T19:34:30.132Z,63.84
2022-09-18T19:37:06.645Z,63.69
2022-09-18T19:39:55.296Z,62.70
2022-09-18T19:42:37.467Z,63.02
2022-09-18T19:45:09.583Z,62.43
2022-09-18T19:47:51.959Z,63.01
2022-09-18T19:50:48.766Z,63.86
2022-09-18T19:53:16.985Z,64.66
2022-09-18T19:55:47.225Z,64.12
2022-09-18T19:59:16.425Z,63.57
2022-09-18T20:01:52.201Z,63.01
2022-09-18T20:04:31.276Z,62.78
2022-09-18T20:07:19.574Z,62.46
2022-09-18T20:09:47.695Z,62.32
2022-09-18T20:12:16.046Z,62.02
2022-09-18T20:14:44.014Z,61.94
2022-09-18T20:21:08.442Z,63.64
2022-09-18T20:23:48.562Z,63.53
2022-09-18T20:26:19.654Z,63.43
2022-09-18T20:28:48.661Z,63.28
2022-09-18T20:31:36.708Z,63.41
2022-09-18T20:34:05.108Z,63.55
2022-09-18T20:37:18.244Z,63.56
2022-09-18T20:44:15.595Z,63.65
2022-09-18T20:46:44.534Z,63.19
2022-09-18T20:49:20.055Z,63.83
2022-09-18T20:51:47.820Z,63.52
2022-09-18T20:54:24.800Z,64.15
2022-09-18T20:56:52.942Z,65.09
2022-09-18T20:59:26.623Z,64.90
2022-09-18T21:01:57.224Z,64.18
2022-09-18T21:04:29.286Z,63.61
2022-09-18T21:07:02.715Z,63.33
2022-09-18T21:09:32.452Z,63.01
2022-09-18T21:12:03.294Z,62.89
2022-09-18T21:14:34.038Z,62.30
2022-09-18T21:17:10.288Z,62.68
2022-09-18T21:19:38.888Z,62.84
2022-09-18T21:24:05.947Z,62.59
2022-09-18T21:26:55.656Z,63.98
2022-09-18T21:29:30.070Z,63.73
2022-09-18T21:32:55.392Z,63.16
2022-09-18T21:35:23.708Z,62.82
2022-09-18T21:37:54.537Z,62.76
2022-09-18T21:40:22.360Z,62.57
2022-09-18T21:42:59.182Z,62.66
2022-09-18T21:45:36.900Z,62.68
2022-09-18T21:48:18.736Z,62.99
2022-09-18T21:50:49.283Z,63.38
2022-09-18T21:53:17.016Z,63.60
2022-09-18T21:55:44.879Z,63.60
2022-09-18T21:58:19.391Z,63.38
2022-09-18T22:00:53.749Z,63.20
2022-09-18T22:04:45.844Z,63.20
2022-09-18T22:07:13.758Z,62.88
2022-09-18T22:09:43.074Z,62.68
2022-09-18T22:12:14.297Z,61.98
2022-09-18T22:14:45.444Z,61.59
2022-09-18T22:17:16.660Z,62.38
2022-09-18T22:19:44.639Z,61.09
2022-09-18T22:22:14.636Z,61.87
2022-09-18T22:24:45.088Z,63.17
2022-09-18T22:27:16.090Z,62.89
2022-09-18T22:29:46.080Z,62.15
2022-09-18T22:32:16.959Z,62.74
2022-09-18T22:38:09.244Z,62.67
2022-09-18T22:44:26.477Z,63.14
2022-09-18T22:47:20.392Z,63.20
2022-09-18T22:49:48.337Z,63.19
2022-09-18T22:53:32.825Z,63.38
2022-09-18T22:56:26.891Z,63.16
2022-09-18T22:59:02.407Z,63.21
2022-09-18T23:02:02.837Z,62.90
2022-09-18T23:04:39.819Z,62.58
2022-09-18T23:07:39.866Z,62.65
2022-09-18T23:11:04.718Z,62.30
2022-09-18T23:13:59.253Z,62.43
2022-09-18T23:22:56.308Z,62.46
2022-09-18T23:25:44.405Z,62.99
2022-09-18T23:28:49.894Z,62.88
2022-09-18T23:31:37.950Z,62.62
2022-09-18T23:34:22.673Z,62.43
2022-09-18T23:37:04.136Z,62.79
2022-09-18T23:39:44.912Z,63.39
2022-09-18T23:42:21.224Z,63.13
2022-09-18T23:44:49.928Z,62.99
2022-09-18T23:47:18.504Z,63.23
2022-09-18T23:53:01.250Z,62.60
2022-09-18T23:55:53.168Z,62.49
2022-09-18T23:58:24.629Z,61.70
